This is the latest recevied weather packets stored in our database for station/object HS1AXC-1. If no packets are shown the sender has not sent any weather packets the latest 10 day(s).
| Time | Temp. | Humidity | Pressure | Rain* | Wind** | Luminosity | Snow |
|---|---|---|---|---|---|---|---|
| 1777725744 | 35.56° C | 63% | 1007 hPa | - | - | 0 W/m² | - |
| 1777725122 | 35.56° C | 62% | 1007 hPa | - | - | 0 W/m² | - |
| 1777724500 | 36.11° C | 57% | 1006 hPa | - | - | 0 W/m² | - |
| 1777723879 | 35.56° C | 56% | 1006 hPa | - | - | 0 W/m² | - |
| 1777723256 | 36.67° C | 54% | 1006 hPa | - | - | 0 W/m² | - |
| 1777722634 | 36.67° C | 54% | 1006 hPa | - | - | 0 W/m² | - |
| 1777722012 | 36.67° C | 53% | 1006 hPa | - | - | 0 W/m² | - |
| 1777721390 | 36.67° C | 52% | 1006 hPa | - | - | 0 W/m² | - |
| 1777720768 | 36.67° C | 51% | 1006 hPa | - | - | 0 W/m² | - |
| 1777720146 | 37.22° C | 50% | 1006 hPa | - | - | 0 W/m² | - |
| 1777719524 | 36.67° C | 50% | 1006 hPa | - | - | 0 W/m² | - |
| 1777718902 | 36.67° C | 50% | 1006 hPa | - | - | 0 W/m² | - |
| 1777718280 | 36.67° C | 50% | 1006 hPa | - | - | 0 W/m² | - |
| 1777717658 | 37.22° C | 50% | 1006 hPa | - | - | 0 W/m² | - |
| 1777717036 | 36.67° C | 49% | 1006 hPa | - | - | 0 W/m² | - |
| 1777716414 | 37.78° C | 47% | 1005 hPa | - | - | 0 W/m² | - |
| 1777715503 | 37.78° C | 46% | 1006 hPa | - | - | 0 W/m² | - |
| 1777715010 | 37.78° C | 46% | 1006 hPa | - | - | 1 W/m² | - |
| 1777714388 | 37.78° C | 47% | 1006 hPa | - | - | 1 W/m² | - |
| 1777713766 | 38.33° C | 47% | 1005 hPa | - | - | 1 W/m² | - |
| 1777713143 | 37.22° C | 49% | 1005 hPa | - | - | 1 W/m² | - |
| 1777712522 | 37.78° C | 48% | 1005 hPa | - | - | 1 W/m² | - |
| 1777711900 | 38.33° C | 47% | 1006 hPa | - | - | 1 W/m² | - |
| 1777711191 | 38.33° C | 48% | 1006 hPa | - | - | 1 W/m² | - |
| 1777710569 | 37.78° C | 48% | 1006 hPa | - | - | 1 W/m² | - |
* Rain since midnight (hover to see other rain measurements)
** Current wind speed in m/s (hover to see current wind gust speed)